ADDS METAR Data INFO
IDs: Format: Raw Decoded Include TAF

Data at: 0753 UTC 17 Oct 2017

KSBN 170654Z AUTO 21007KT 10SM CLR 06/04 A3024 RMK AO2 SLP242 T00610039
KSBN 170554Z AUTO 22006KT 10SM CLR 07/04 A3024 RMK AO2 SLP243 T00670039 10094 20067 55000
KSBN 170454Z AUTO 21006KT 10SM CLR 07/04 A3023 RMK AO2 SLP241 T00670039 401500044
KSBN 170354Z AUTO 21006KT 10SM CLR 07/04 A3024 RMK AO2 SLP243 T00720044
KSBN 170254Z 20006KT 10SM CLR 07/05 A3024 RMK AO2 SLP243 T00670050 58002
KSBN 170154Z 00000KT 10SM CLR 07/05 A3025 RMK AO2 SLP247 T00720050
KSBN 170054Z 00000KT 10SM CLR 09/05 A3025 RMK AO2 SLP246 T00890050
KSBN 162354Z 00000KT 10SM CLR 09/05 A3025 RMK AO2 SLP246 T00940050 10150 20094 56007
KSBN 162254Z 00000KT 10SM CLR 13/04 A3025 RMK AO2 SLP248 T01330039
KSBN 162154Z 26005KT 10SM CLR 15/03 A3025 RMK AO2 SLP246 T01500028
KSBN 162054Z 27005KT 10SM CLR 15/02 A3027 RMK AO2 SLP252 T01500022 56015
KSBN 161954Z 29007KT 10SM FEW055 15/03 A3027 RMK AO2 SLP252 T01500028
KSBN 161854Z 27009KT 10SM CLR 14/02 A3029 RMK AO2 SLP259 T01440022
KSBN 161754Z 25007KT 10SM FEW045 13/03 A3031 RMK AO2 SLP267 T01330033 10139 20044 58004
KSBN 161654Z 31009KT 10SM CLR 13/04 A3032 RMK AO2 SLP271 T01280044
KSBN 161554Z 30007G16KT 10SM FEW031 12/05 A3032 RMK AO2 SLP271 T01170050
KSBN 161454Z 27008KT 10SM CLR 11/07 A3032 RMK AO2 SLP271 T01110072 51014
KSBN 161354Z 25006KT 10SM FEW034 SCT043 BKN080 09/07 A3032 RMK AO2 SLP269 T00890067
KSBN 161254Z 24005KT 10SM FEW043 BKN050 BKN085 07/07 A3030 RMK AO2 SLP263 T00720067
KSBN 161154Z 24004KT 10SM FEW090 05/05 A3028 RMK AO2 SLP259 60001 70024 T00500050 10089 20044 51013 $
KSBN 161054Z 26006KT 10SM CLR 04/04 A3027 RMK AO2 SLP255 T00440044 $
KSBN 160954Z 27006KT 10SM FEW035 06/06 A3025 RMK AO2 SLP249 T00560056 $
KSBN 160854Z AUTO 27006KT 10SM FEW050 06/06 A3024 RMK AO2 SLP245 60001 T00610061 53005 $
KSBN 160754Z AUTO 30006KT 10SM FEW042 BKN055 OVC070 09/07 A3023 RMK AO2 SLP241 T00890072 $
KSBN 160654Z AUTO 28004KT 10SM FEW030 BKN049 OVC070 09/09 A3024 RMK AO2 RAB0557E27 SLP242 P0001 T00890089 $
KSBN 160554Z AUTO 23005KT 10SM FEW027 BKN044 OVC060 09/09 A3023 RMK AO2 RAE51 SLP239 P0000 60010 T00890089 10111 20083 51006 $
KSBN 160517Z AUTO 00000KT 10SM -RA FEW026 BKN040 OVC049 09/09 A3022 RMK AO2 P0000 T00890089 $
KSBN 160454Z AUTO 00000KT 9SM -RA BKN026 BKN035 OVC044 09/09 A3022 RMK AO2 SLP237 P0004 T00890089 401940083 $
KSBN 160445Z AUTO 00000KT 6SM -RA BR BKN026 BKN035 OVC043 09/09 A3022 RMK AO2 P0003 T00890089 $
KSBN 160354Z AUTO 00000KT 7SM -RA FEW015 BKN034 OVC050 09/09 A3022 RMK AO2 RAB25 SLP235 P0006 T00890089 $
KSBN 160254Z 00000KT 10SM SCT070 BKN080 09/09 A3021 RMK AO2 RAE03 SLP231 P0000 60000 T00940089 51022 $
KSBN 160154Z 09007KT 10SM -RA SCT044 BKN060 OVC070 10/08 A3019 RMK AO2 RAB21 SLP223 P0000 T01000078 $
KSBN 160054Z 35008KT 10SM OVC060 11/07 A3018 RMK AO2 SLP218 T01060067 $
KSBN 152354Z 33010KT 10SM FEW038 OVC046 11/07 A3014 RMK AO2 SLP207 60001 T01060072 10117 20106 51025 $
KSBN 152254Z 33009KT 10SM OVC050 11/07 A3012 RMK AO2 SLP198 T01060072 $
KSBN 152154Z 32011KT 10SM FEW029 OVC043 11/08 A3010 RMK AO2 PK WND 32026/2108 RAB09E19 SLP191 P0000 T01060083 $
KSBN 152054Z 32011KT 10SM FEW019 BKN035 OVC044 11/09 A3007 RMK AO2 RAE34 SLP181 P0000 60001 T01060094 53031 $
KSBN 151954Z 31014G21KT 2SM R27L/5000VP6000FT -RA BR BKN008 OVC020 11/11 A3003 RMK AO2 RAB1855E04B26 SLP170 P0001 T01060106 $